Time;durP1;ratioP1;P1;durP2;ratioP2;P2;SDS_P1;SDS_P2;PMS_P1;PMS_P2;Temp;Humidity;BMP_temperature;BMP_pressure;BME280_temperature;BME280_humidity;BME280_pressure;Samples;Min_cycle;Max_cycle;Signal;HPM_P1;HPM_P2
2023/10/25 00:01:14;;;;;;;0.10;0.10;;;;;;;11.21;82.49;99331.22;7365928;19;20011;-61
2023/10/25 00:03:40;;;;;;;0.10;0.10;;;;;;;11.07;82.55;99308.34;7363637;19;20625;-61
2023/10/25 00:06:05;;;;;;;0.10;0.10;;;;;;;11.16;82.46;99324.44;7366509;19;20011;-61
2023/10/25 00:08:31;;;;;;;0.00;0.00;;;;;;;11.10;82.80;99319.53;7363807;19;20014;-61
2023/10/25 00:11:03;;;;;;;0.00;0.00;;;;;;;11.17;82.47;99323.53;7366005;19;20014;-60
2023/10/25 00:13:28;;;;;;;0.10;0.10;;;;;;;11.12;82.83;99314.22;7364912;19;20014;-61
2023/10/25 00:15:54;;;;;;;0.00;0.00;;;;;;;11.14;82.83;99325.44;7365935;19;20033;-60
2023/10/25 00:18:19;;;;;;;0.00;0.00;;;;;;;11.14;82.89;99321.03;7364217;19;20006;-60
2023/10/25 00:20:44;;;;;;;0.10;0.10;;;;;;;11.13;83.12;99319.34;7355981;19;20730;-61
2023/10/25 00:23:10;;;;;;;0.05;0.05;;;;;;;11.19;83.63;99323.44;7362079;19;20014;-61
2023/10/25 00:25:35;;;;;;;0.10;0.10;;;;;;;11.21;83.74;99321.63;7363117;19;20347;-61
2023/10/25 00:28:00;;;;;;;0.00;0.00;;;;;;;11.27;83.78;99330.94;7364744;19;20122;-61
2023/10/25 00:30:26;;;;;;;0.10;0.10;;;;;;;11.31;83.52;99328.09;7361371;19;20467;-61
2023/10/25 00:32:51;;;;;;;0.10;0.10;;;;;;;11.35;83.47;99328.78;7370205;19;20022;-61
2023/10/25 00:35:17;;;;;;;0.00;0.00;;;;;;;11.40;83.49;99337.25;7364526;19;21021;-61
2023/10/25 00:37:42;;;;;;;0.05;0.05;;;;;;;11.42;83.76;99335.44;7364941;19;20041;-61
2023/10/25 00:40:08;;;;;;;0.10;0.10;;;;;;;11.48;83.60;99335.13;7362309;19;20031;-61
2023/10/25 00:42:33;;;;;;;0.10;0.10;;;;;;;11.52;83.47;99330.59;7365544;19;20483;-61
2023/10/25 00:44:58;;;;;;;0.10;0.10;;;;;;;11.51;83.83;99329.78;7370578;19;20566;-60
2023/10/25 00:47:24;;;;;;;0.10;0.10;;;;;;;11.59;83.43;99343.28;7363023;19;20025;-61
2023/10/25 00:49:50;;;;;;;0.00;0.00;;;;;;;11.59;83.35;99345.91;7362177;19;20655;-60
2023/10/25 00:52:16;;;;;;;0.10;0.10;;;;;;;11.63;83.39;99344.84;7362777;19;20026;-61
2023/10/25 00:54:42;;;;;;;0.10;0.10;;;;;;;11.67;83.43;99342.94;7363821;19;20010;-60
2023/10/25 00:57:08;;;;;;;0.10;0.10;;;;;;;11.70;83.36;99346.22;7362835;19;20006;-61
2023/10/25 00:59:35;;;;;;;0.00;0.00;;;;;;;11.73;83.30;99340.00;7364254;19;20466;-61
2023/10/25 01:02:02;;;;;;;0.10;0.10;;;;;;;11.75;83.42;99345.16;7356646;19;20021;-60
2023/10/25 01:04:29;;;;;;;0.10;0.10;;;;;;;11.74;83.18;99346.09;7363953;19;20017;-61
2023/10/25 01:06:54;;;;;;;0.10;0.10;;;;;;;11.74;82.96;99351.31;7358612;19;20016;-60
2023/10/25 01:09:20;;;;;;;0.10;0.10;;;;;;;11.76;83.17;99354.69;7365070;19;20074;-61
2023/10/25 01:11:45;;;;;;;0.10;0.10;;;;;;;11.73;82.68;99350.47;7360602;19;20003;-60
2023/10/25 01:14:11;;;;;;;0.10;0.10;;;;;;;11.64;83.03;99343.06;7358239;19;20006;-61
2023/10/25 01:16:36;;;;;;;0.05;0.05;;;;;;;11.70;82.96;99353.22;7363389;19;20043;-61
2023/10/25 01:19:02;;;;;;;0.10;0.10;;;;;;;11.68;82.94;99353.31;7363786;19;20444;-61
2023/10/25 01:21:27;;;;;;;0.10;0.10;;;;;;;11.66;82.91;99355.16;7355050;19;20003;-60
2023/10/25 01:23:53;;;;;;;0.00;0.00;;;;;;;11.66;82.96;99349.94;7352969;19;20018;-59
2023/10/25 01:26:18;;;;;;;0.10;0.10;;;;;;;11.63;82.95;99355.31;7362449;19;20010;-61
2023/10/25 01:28:44;;;;;;;0.10;0.10;;;;;;;11.63;82.55;99352.69;7364368;19;20010;-61
2023/10/25 01:31:09;;;;;;;0.08;0.08;;;;;;;11.42;82.69;99325.81;7362302;19;20011;-61
2023/10/25 01:33:34;;;;;;;0.08;0.08;;;;;;;11.61;82.74;99346.69;7365698;19;20014;-61
2023/10/25 01:36:00;;;;;;;0.10;0.10;;;;;;;11.59;82.92;99347.69;7365038;19;20010;-61
2023/10/25 01:38:25;;;;;;;0.10;0.10;;;;;;;11.60;82.71;99349.38;7357911;19;20855;-60
2023/10/25 01:40:51;;;;;;;0.10;0.10;;;;;;;11.59;83.06;99353.75;7361599;19;20006;-61
2023/10/25 01:43:16;;;;;;;0.00;0.00;;;;;;;11.59;82.64;99352.91;7360325;19;20014;-60
2023/10/25 01:45:41;;;;;;;0.10;0.10;;;;;;;11.57;82.74;99355.59;7357711;19;20010;-60
2023/10/25 01:48:08;;;;;;;0.10;0.10;;;;;;;11.57;82.87;99365.22;7360251;19;20495;-61
2023/10/25 01:50:34;;;;;;;0.08;0.08;;;;;;;11.56;82.84;99358.31;7362089;19;20015;-60
2023/10/25 01:52:59;;;;;;;0.10;0.10;;;;;;;11.55;82.49;99356.59;7360164;19;20017;-61
2023/10/25 01:55:24;;;;;;;0.10;0.10;;;;;;;11.42;82.49;99327.59;7358844;19;21142;-61
2023/10/25 01:57:50;;;;;;;0.10;0.10;;;;;;;11.50;82.68;99342.88;7358546;19;20015;-61
2023/10/25 02:00:16;;;;;;;0.10;0.10;;;;;;;11.43;82.29;99337.97;7360110;19;20011;-61
2023/10/25 02:02:41;;;;;;;0.10;0.10;;;;;;;11.40;82.30;99334.63;7362868;19;20037;-61
2023/10/25 02:05:07;;;;;;;0.10;0.10;;;;;;;11.40;82.46;99339.88;7357657;19;20002;-61
2023/10/25 02:07:33;;;;;;;0.00;0.00;;;;;;;11.42;82.45;99345.88;7365731;19;20019;-60
2023/10/25 02:09:58;;;;;;;0.13;0.13;;;;;;;11.40;82.61;99348.59;7357732;19;20006;-61
2023/10/25 02:12:23;;;;;;;0.10;0.10;;;;;;;11.40;82.30;99352.94;7363992;19;20021;-61
2023/10/25 02:14:49;;;;;;;0.00;0.00;;;;;;;11.38;82.68;99344.34;7355961;19;20010;-61
2023/10/25 02:17:14;;;;;;;0.10;0.10;;;;;;;11.39;82.73;99340.78;7367745;19;20331;-60
2023/10/25 02:19:40;;;;;;;0.10;0.10;;;;;;;11.39;83.22;99340.78;7361376;19;20018;-60
2023/10/25 02:22:05;;;;;;;0.10;0.10;;;;;;;11.28;83.07;99327.41;7372120;19;20492;-60
2023/10/25 02:24:31;;;;;;;0.10;0.10;;;;;;;11.39;83.38;99332.94;7369333;19;20916;-60
2023/10/25 02:26:56;;;;;;;0.10;0.10;;;;;;;11.42;82.92;99336.28;7367816;19;20014;-61
2023/10/25 02:29:22;;;;;;;0.10;0.10;;;;;;;11.35;83.35;99307.88;7365439;19;20020;-61
2023/10/25 02:31:48;;;;;;;0.10;0.10;;;;;;;11.49;83.48;99328.97;7368259;19;20014;-61
2023/10/25 02:34:13;;;;;;;0.10;0.10;;;;;;;11.53;83.11;99320.06;7366932;19;20011;-61
2023/10/25 02:36:38;;;;;;;0.10;0.10;;;;;;;11.57;83.29;99318.16;7373013;19;20018;-61
2023/10/25 02:39:04;;;;;;;0.10;0.10;;;;;;;11.45;83.24;99293.44;7367483;19;20021;-60
2023/10/25 02:41:29;;;;;;;0.10;0.10;;;;;;;11.60;83.56;99318.84;7363969;19;20010;-61
2023/10/25 02:43:56;;;;;;;0.10;0.10;;;;;;;11.66;83.09;99318.56;7363744;19;20002;-60
2023/10/25 02:46:22;;;;;;;0.10;0.10;;;;;;;11.65;83.28;99322.06;7366803;19;20015;-60
2023/10/25 02:48:50;;;;;;;0.10;0.10;;;;;;;11.74;83.35;99326.00;7367349;19;20019;-61
2023/10/25 02:51:15;;;;;;;0.00;0.00;;;;;;;11.78;83.17;99326.72;7364246;19;20048;-60
2023/10/25 02:53:41;;;;;;;0.10;0.10;;;;;;;11.80;83.23;99325.69;7366065;19;20934;-61
2023/10/25 02:56:07;;;;;;;0.10;0.10;;;;;;;11.84;83.45;99332.50;7361064;19;20035;-61
2023/10/25 02:58:34;;;;;;;0.10;0.10;;;;;;;11.87;82.91;99323.69;7358738;19;20002;-61
2023/10/25 03:01:00;;;;;;;0.10;0.10;;;;;;;11.88;82.91;99317.53;7361437;19;20098;-61
2023/10/25 03:03:30;;;;;;;0.10;0.10;;;;;;;11.86;83.21;99304.53;7374567;19;20107;-61
2023/10/25 03:05:56;;;;;;;0.03;0.03;;;;;;;11.95;83.17;99316.28;7356852;19;20026;-61
2023/10/25 03:08:22;;;;;;;0.10;0.10;;;;;;;11.95;83.13;99313.66;7372851;19;20003;-61
2023/10/25 03:10:48;;;;;;;0.03;0.03;;;;;;;11.98;83.15;99308.28;7364835;19;21491;-61
2023/10/25 03:13:13;;;;;;;0.10;0.10;;;;;;;12.01;83.16;99313.34;7368467;19;20006;-61
2023/10/25 03:15:39;;;;;;;0.15;0.15;;;;;;;12.03;82.90;99311.50;7362022;19;20017;-60
2023/10/25 03:18:05;;;;;;;0.00;0.00;;;;;;;12.04;82.73;99307.97;7337294;19;20007;-61
2023/10/25 03:20:32;;;;;;;0.10;0.10;;;;;;;11.97;82.80;99301.38;7367444;19;20542;-61
2023/10/25 03:22:57;;;;;;;0.10;0.10;;;;;;;12.09;82.76;99311.19;7363809;19;20079;-61
2023/10/25 03:25:22;;;;;;;0.10;0.10;;;;;;;12.05;82.96;99299.19;7361424;19;20090;-61
2023/10/25 03:27:48;;;;;;;0.10;0.10;;;;;;;12.12;82.78;99300.59;7363742;19;20010;-61
2023/10/25 03:30:13;;;;;;;0.10;0.10;;;;;;;12.15;82.89;99299.56;7366774;19;20034;-61
2023/10/25 03:32:39;;;;;;;0.03;0.03;;;;;;;12.17;82.55;99303.81;7368074;19;20479;-60
2023/10/25 03:35:05;;;;;;;0.10;0.10;;;;;;;12.17;83.13;99297.72;7365469;19;20021;-61
2023/10/25 03:37:31;;;;;;;0.10;0.10;;;;;;;12.20;82.75;99293.16;7362738;19;20018;-61
2023/10/25 03:39:57;;;;;;;0.00;0.00;;;;;;;12.22;82.78;99289.66;7361308;19;20023;-61
2023/10/25 03:42:23;;;;;;;0.10;0.10;;;;;;;12.22;82.74;99281.78;7368058;19;20006;-60
2023/10/25 03:44:48;;;;;;;0.10;0.10;;;;;;;12.20;82.60;99282.69;7365086;19;20007;-59
2023/10/25 03:47:13;;;;;;;0.10;0.10;;;;;;;12.27;82.52;99290.25;7362130;19;20014;-61
2023/10/25 03:49:39;;;;;;;0.10;0.10;;;;;;;12.28;82.75;99291.94;7360435;19;21167;-61
2023/10/25 03:52:04;;;;;;;0.10;0.10;;;;;;;12.29;82.45;99291.00;7365375;19;20027;-61
2023/10/25 03:54:30;;;;;;;0.10;0.10;;;;;;;12.30;82.54;99287.47;7366089;19;20006;-60
2023/10/25 03:56:55;;;;;;;0.03;0.03;;;;;;;12.30;82.70;99277.81;7364834;19;20006;-61
2023/10/25 03:59:21;;;;;;;0.00;0.00;;;;;;;12.31;82.80;99281.28;7360913;19;20630;-60
2023/10/25 04:01:46;;;;;;;0.10;0.10;;;;;;;12.31;82.75;99278.66;7370153;19;20537;-61
2023/10/25 04:04:11;;;;;;;0.10;0.10;;;;;;;12.14;82.44;99243.78;7366230;19;20043;-60
2023/10/25 04:06:37;;;;;;;0.10;0.10;;;;;;;12.31;82.49;99257.72;7367293;19;20866;-61
2023/10/25 04:09:03;;;;;;;0.10;0.10;;;;;;;12.27;82.85;99254.44;7366178;19;20038;-60
2023/10/25 04:11:28;;;;;;;0.10;0.10;;;;;;;12.31;82.30;99255.97;7367890;19;19999;-61
2023/10/25 04:13:53;;;;;;;0.10;0.10;;;;;;;12.31;82.62;99253.34;7362832;19;20386;-61
2023/10/25 04:16:19;;;;;;;0.10;0.10;;;;;;;12.30;82.62;99249.03;7367677;19;20027;-61
2023/10/25 04:18:44;;;;;;;0.10;0.10;;;;;;;12.31;82.54;99242.03;7367228;19;20593;-60
2023/10/25 04:21:12;;;;;;;0.10;0.10;;;;;;;12.31;82.30;99236.78;7366935;19;20018;-60
2023/10/25 04:23:38;;;;;;;0.10;0.10;;;;;;;12.26;82.42;99234.41;7364754;19;20074;-61
2023/10/25 04:26:07;;;;;;;0.10;0.10;;;;;;;12.27;82.52;99225.66;7366417;19;20021;-61
2023/10/25 04:28:33;;;;;;;0.10;0.10;;;;;;;12.21;82.35;99233.81;7365057;19;20054;-60
2023/10/25 04:30:59;;;;;;;0.10;0.10;;;;;;;12.16;82.11;99226.19;7365604;19;20027;-60
2023/10/25 04:33:25;;;;;;;0.10;0.10;;;;;;;12.11;82.36;99227.38;7365805;19;20011;-61
2023/10/25 04:35:50;;;;;;;0.03;0.03;;;;;;;12.07;82.49;99231.09;7369647;19;20010;-61
2023/10/25 04:38:16;;;;;;;0.00;0.00;;;;;;;12.04;82.38;99239.94;7366057;19;20010;-60
2023/10/25 04:40:41;;;;;;;0.10;0.10;;;;;;;11.94;82.30;99230.88;7361004;19;20027;-59
2023/10/25 04:43:07;;;;;;;0.10;0.10;;;;;;;11.76;82.01;99208.25;7363764;19;20481;-61
2023/10/25 04:45:35;;;;;;;0.10;0.10;;;;;;;11.90;82.06;99226.72;7361043;19;20018;-61
2023/10/25 04:48:00;;;;;;;0.00;0.00;;;;;;;11.84;82.37;99227.03;7363030;19;20809;-61
2023/10/25 04:50:26;;;;;;;0.10;0.10;;;;;;;11.79;82.10;99213.31;7362496;19;20018;-60
2023/10/25 04:52:52;;;;;;;0.10;0.10;;;;;;;11.73;82.22;99213.66;7360853;19;20028;-61
2023/10/25 04:55:17;;;;;;;0.10;0.10;;;;;;;11.69;82.51;99211.19;7360436;19;20025;-61
2023/10/25 04:57:43;;;;;;;0.10;0.10;;;;;;;11.65;82.63;99200.94;7360580;19;20006;-60
2023/10/25 05:00:09;;;;;;;0.05;0.05;;;;;;;11.53;82.58;99197.19;7362820;19;20017;-61
2023/10/25 05:02:38;;;;;;;0.10;0.10;;;;;;;11.58;82.18;99199.59;7363248;19;20113;-60
2023/10/25 05:05:08;;;;;;;0.10;0.10;;;;;;;11.53;82.08;99215.50;7361154;19;20017;-61
2023/10/25 05:07:34;;;;;;;0.10;0.10;;;;;;;11.45;82.18;99199.34;7364855;19;20932;-61
2023/10/25 05:10:00;;;;;;;0.10;0.10;;;;;;;11.45;82.08;99204.56;7363941;19;20088;-61
2023/10/25 05:12:43;;;;;;;0.05;0.05;;;;;;;11.43;81.89;99195.97;7370229;19;20081;-60
2023/10/25 05:15:09;;;;;;;0.00;0.00;;;;;;;11.25;82.06;99178.59;7365892;19;20017;-60
2023/10/25 05:17:35;;;;;;;0.10;0.10;;;;;;;11.31;82.63;99196.59;7363173;19;20014;-60
2023/10/25 05:20:05;;;;;;;0.00;0.00;;;;;;;11.30;82.12;99197.50;7364342;19;20011;-61
2023/10/25 05:22:34;;;;;;;0.10;0.10;;;;;;;11.27;82.41;99195.06;7360873;19;20019;-59
2023/10/25 05:25:01;;;;;;;0.10;0.10;;;;;;;11.18;82.61;99183.28;7371675;19;20756;-61
2023/10/25 05:27:26;;;;;;;0.00;0.00;;;;;;;11.18;82.60;99181.50;7369227;19;20007;-61
2023/10/25 05:29:52;;;;;;;0.10;0.10;;;;;;;11.15;82.60;99176.47;7368907;19;20010;-60
2023/10/25 05:32:19;;;;;;;0.10;0.10;;;;;;;11.09;82.28;99176.72;7368593;19;20363;-60
2023/10/25 05:34:47;;;;;;;0.10;0.10;;;;;;;11.08;82.48;99179.44;7361398;19;20063;-60
2023/10/25 05:37:12;;;;;;;0.10;0.10;;;;;;;11.05;82.68;99184.78;7368778;19;20018;-61
2023/10/25 05:39:38;;;;;;;0.00;0.00;;;;;;;11.01;82.32;99189.34;7364180;19;19998;-60
2023/10/25 05:42:04;;;;;;;0.00;0.00;;;;;;;10.99;82.07;99190.31;7366944;19;20070;-60
2023/10/25 05:44:30;;;;;;;0.10;0.10;;;;;;;10.92;82.22;99184.56;7360652;19;20009;-60
2023/10/25 05:46:56;;;;;;;0.10;0.10;;;;;;;10.89;82.27;99174.25;7362817;19;20019;-61
2023/10/25 05:49:21;;;;;;;0.00;0.00;;;;;;;10.77;82.29;99161.78;7357017;19;20082;-61
2023/10/25 05:51:47;;;;;;;0.00;0.00;;;;;;;10.60;82.18;99137.34;7369615;19;20018;-60
2023/10/25 05:54:13;;;;;;;0.10;0.10;;;;;;;10.79;82.39;99183.44;7370664;19;20011;-60
2023/10/25 05:56:39;;;;;;;0.10;0.10;;;;;;;10.75;82.22;99171.47;7371951;19;20111;-60
2023/10/25 05:59:05;;;;;;;0.10;0.10;;;;;;;10.72;82.29;99182.06;7364347;19;20728;-60
2023/10/25 06:01:48;;;;;;;0.10;0.10;;;;;;;10.71;82.09;99180.38;7366766;19;20366;-61
2023/10/25 06:04:14;;;;;;;0.00;0.00;;;;;;;10.64;82.18;99185.00;7369860;19;20035;-60
2023/10/25 06:06:43;;;;;;;0.10;0.10;;;;;;;10.61;82.54;99179.94;7368616;19;20003;-60
2023/10/25 06:09:10;;;;;;;0.00;0.00;;;;;;;10.56;82.53;99177.56;7367468;19;20006;-60
2023/10/25 06:11:37;;;;;;;0.10;0.10;;;;;;;10.53;82.50;99193.34;7369119;19;20094;-60
2023/10/25 06:14:02;;;;;;;0.00;0.00;;;;;;;10.50;82.59;99193.50;7357246;19;20015;-60
2023/10/25 06:16:28;;;;;;;0.10;0.10;;;;;;;10.45;82.17;99190.28;7365561;19;20496;-61
2023/10/25 06:18:53;;;;;;;0.00;0.00;;;;;;;10.30;82.39;99170.94;7368149;19;20036;-61
2023/10/25 06:21:19;;;;;;;0.10;0.10;;;;;;;10.40;82.55;99192.25;7365661;19;20043;-60
2023/10/25 06:23:44;;;;;;;0.10;0.10;;;;;;;10.38;82.71;99188.84;7368073;19;20010;-61
2023/10/25 06:26:09;;;;;;;0.00;0.00;;;;;;;10.32;82.20;99187.38;7363450;19;20014;-60
2023/10/25 06:28:35;;;;;;;0.10;0.10;;;;;;;10.32;82.55;99196.97;7368296;19;20030;-61
2023/10/25 06:31:00;;;;;;;0.10;0.10;;;;;;;10.28;82.62;99198.00;7365155;19;20019;-60
2023/10/25 06:33:26;;;;;;;0.10;0.10;;;;;;;10.23;82.62;99197.34;7365949;19;20415;-60
2023/10/25 06:35:52;;;;;;;0.10;0.10;;;;;;;10.23;82.83;99210.38;7359788;19;20052;-60
2023/10/25 06:38:17;;;;;;;0.00;0.00;;;;;;;10.21;82.43;99212.22;7367811;19;20006;-60
2023/10/25 06:40:43;;;;;;;0.00;0.00;;;;;;;10.20;83.03;99223.59;7364768;19;20010;-60
2023/10/25 06:43:09;;;;;;;0.03;0.03;;;;;;;10.17;82.56;99218.50;7361785;19;20768;-60
2023/10/25 06:45:35;;;;;;;0.10;0.10;;;;;;;10.17;82.75;99223.72;7367568;19;20021;-59
2023/10/25 06:48:01;;;;;;;0.10;0.10;;;;;;;10.04;83.02;99206.00;7364535;19;20010;-60
2023/10/25 06:50:27;;;;;;;0.00;0.00;;;;;;;10.18;83.28;99212.34;7364268;19;20022;-61
2023/10/25 06:52:53;;;;;;;0.10;0.10;;;;;;;10.10;82.95;99210.94;7365767;19;20014;-60
2023/10/25 06:55:20;;;;;;;0.08;0.08;;;;;;;10.09;82.98;99203.19;7363834;19;20077;-60
2023/10/25 06:57:46;;;;;;;0.10;0.10;;;;;;;10.16;83.25;99211.59;7363679;19;20014;-60
2023/10/25 07:00:12;;;;;;;0.10;0.10;;;;;;;10.17;82.88;99211.50;7364628;19;20022;-60
2023/10/25 07:02:48;;;;;;;0.00;0.00;;;;;;;10.22;83.11;99219.13;7370863;19;20022;-60
2023/10/25 07:05:15;;;;;;;0.03;0.03;;;;;;;10.22;83.46;99213.91;7362720;19;20478;-60
2023/10/25 07:07:43;;;;;;;0.10;0.10;;;;;;;10.24;83.55;99218.19;7362632;19;20070;-60
2023/10/25 07:10:10;;;;;;;0.00;0.00;;;;;;;10.21;83.21;99214.84;7365234;19;20002;-60
2023/10/25 07:12:35;;;;;;;0.10;0.10;;;;;;;10.28;83.57;99213.66;7365760;19;20371;-60
2023/10/25 07:15:00;;;;;;;0.10;0.10;;;;;;;10.26;83.11;99216.34;7363427;19;20006;-60
2023/10/25 07:17:27;;;;;;;0.10;0.10;;;;;;;10.32;83.19;99225.66;7364651;19;20094;-60
2023/10/25 07:19:53;;;;;;;0.00;0.00;;;;;;;10.33;83.04;99224.72;7368111;19;20490;-60
2023/10/25 07:22:19;;;;;;;0.00;0.00;;;;;;;10.35;83.17;99220.31;7357789;19;20033;-60
2023/10/25 07:24:44;;;;;;;0.10;0.10;;;;;;;10.33;83.27;99220.34;7369161;19;20017;-59
2023/10/25 07:27:10;;;;;;;0.03;0.03;;;;;;;10.35;83.15;99220.31;7362271;19;20030;-60
2023/10/25 07:29:36;;;;;;;0.00;0.00;;;;;;;10.34;82.96;99218.59;7357537;19;20335;-60
2023/10/25 07:32:03;;;;;;;0.10;0.10;;;;;;;10.31;82.99;99216.13;7360454;19;20006;-59
2023/10/25 07:34:28;;;;;;;0.05;0.05;;;;;;;10.32;82.91;99217.84;7369052;19;20014;-61
2023/10/25 07:36:54;;;;;;;0.00;0.00;;;;;;;10.31;82.92;99213.53;7350867;19;19999;-60
2023/10/25 07:39:19;;;;;;;0.10;0.10;;;;;;;10.16;82.43;99199.38;7365350;19;20018;-60
2023/10/25 07:41:45;;;;;;;0.10;0.10;;;;;;;10.26;82.63;99220.72;7354474;19;20066;-60
2023/10/25 07:44:10;;;;;;;0.00;0.00;;;;;;;10.28;82.42;99224.09;7367451;19;20019;-60
2023/10/25 07:46:35;;;;;;;0.10;0.10;;;;;;;10.25;82.87;99224.25;7365041;19;20010;-60
2023/10/25 07:49:01;;;;;;;0.10;0.10;;;;;;;10.25;82.50;99230.31;7361252;19;20851;-60
2023/10/25 07:51:26;;;;;;;0.10;0.10;;;;;;;10.25;82.60;99224.25;7362028;19;20023;-60
2023/10/25 07:53:52;;;;;;;0.10;0.10;;;;;;;10.24;82.56;99227.75;7375201;19;20014;-58
2023/10/25 07:56:18;;;;;;;0.10;0.10;;;;;;;10.21;82.63;99230.47;7339119;19;20704;-60
2023/10/25 07:58:44;;;;;;;0.03;0.03;;;;;;;10.20;82.75;99232.25;7353869;19;20039;-61
2023/10/25 08:01:10;;;;;;;0.10;0.10;;;;;;;10.17;82.50;99226.31;7358791;19;20400;-59
2023/10/25 08:03:36;;;;;;;0.00;0.00;;;;;;;10.16;82.32;99225.47;7361497;19;20011;-60
2023/10/25 08:06:01;;;;;;;0.00;0.00;;;;;;;9.95;82.35;99195.97;7362704;19;20010;-60
2023/10/25 08:08:27;;;;;;;0.00;0.00;;;;;;;10.09;82.36;99229.28;7358974;19;20006;-61
2023/10/25 08:11:03;;;;;;;0.00;0.00;;;;;;;10.18;82.38;99233.22;7360910;19;20086;-60
2023/10/25 08:13:33;;;;;;;0.10;0.10;;;;;;;10.17;82.64;99236.75;7359807;19;20888;-61
2023/10/25 08:16:00;;;;;;;0.10;0.10;;;;;;;10.13;82.89;99226.44;7360030;19;20036;-60
2023/10/25 08:18:30;;;;;;;0.00;0.00;;;;;;;10.17;82.42;99231.53;7360492;19;20042;-60
2023/10/25 08:20:57;;;;;;;0.10;0.10;;;;;;;10.13;82.86;99229.03;7365025;19;20044;-60
2023/10/25 08:23:22;;;;;;;0.00;0.00;;;;;;;10.02;82.92;99206.97;7360351;19;20070;-60
2023/10/25 08:25:48;;;;;;;0.10;0.10;;;;;;;10.13;82.42;99223.81;7361049;19;20494;-60
2023/10/25 08:28:14;;;;;;;0.10;0.10;;;;;;;10.12;82.89;99224.75;7370127;19;20013;-61
2023/10/25 08:30:40;;;;;;;0.10;0.10;;;;;;;10.12;82.54;99224.75;7363080;19;20013;-60
2023/10/25 08:33:05;;;;;;;0.10;0.10;;;;;;;10.02;82.85;99201.75;7359483;19;20010;-60
2023/10/25 08:35:31;;;;;;;0.10;0.10;;;;;;;10.19;83.07;99230.56;7362209;19;20007;-60
2023/10/25 08:37:56;;;;;;;0.00;0.00;;;;;;;10.25;82.80;99225.09;7351578;19;20056;-60
2023/10/25 08:40:24;;;;;;;0.10;0.10;;;;;;;10.35;83.36;99225.53;7361900;19;20021;-60
2023/10/25 08:42:50;;;;;;;0.10;0.10;;;;;;;10.48;83.23;99224.03;7360389;19;20082;-61
2023/10/25 08:45:16;;;;;;;0.00;0.00;;;;;;;10.58;83.02;99217.47;7363395;19;20011;-61
2023/10/25 08:47:42;;;;;;;0.10;0.10;;;;;;;10.91;82.90;99227.28;7355678;19;20027;-60
2023/10/25 08:50:08;;;;;;;0.10;0.10;;;;;;;11.20;82.38;99222.38;7360454;19;20031;-60
2023/10/25 08:52:39;;;;;;;0.10;0.10;;;;;;;11.52;82.10;99234.72;7366147;19;20427;-60
2023/10/25 08:55:09;;;;;;;0.08;0.08;;;;;;;11.81;81.62;99221.94;7359371;19;20014;-60
2023/10/25 08:57:36;;;;;;;0.10;0.10;;;;;;;12.05;81.20;99218.06;7358817;19;20014;-61
2023/10/25 09:00:07;;;;;;;0.00;0.00;;;;;;;12.24;80.07;99214.50;7362421;19;20014;-61
2023/10/25 09:02:36;;;;;;;0.10;0.10;;;;;;;12.64;79.86;99235.00;7360449;19;20010;-61
2023/10/25 09:05:06;;;;;;;0.10;0.10;;;;;;;12.91;79.09;99234.38;7358952;19;20614;-60
2023/10/25 09:07:36;;;;;;;0.00;0.00;;;;;;;13.28;79.10;99234.97;7353967;19;20517;-61
2023/10/25 09:10:12;;;;;;;0.10;0.10;;;;;;;13.63;78.93;99233.75;7357805;19;20502;-60
2023/10/25 09:12:37;;;;;;;0.00;0.00;;;;;;;13.89;77.37;99231.38;7356867;19;20034;-61
2023/10/25 09:15:03;;;;;;;0.10;0.10;;;;;;;14.19;76.82;99232.19;7356691;19;20006;-61
2023/10/25 09:17:31;;;;;;;0.10;0.10;;;;;;;14.38;75.68;99207.41;7359421;19;20025;-61
2023/10/25 09:19:56;;;;;;;0.10;0.10;;;;;;;14.83;75.20;99234.38;7358538;19;20014;-61
2023/10/25 09:22:26;;;;;;;0.10;0.10;;;;;;;15.20;75.23;99233.69;7357966;19;20007;-61
2023/10/25 09:24:59;;;;;;;0.10;0.10;;;;;;;15.51;74.33;99231.66;7359607;19;20014;-61
2023/10/25 09:27:25;;;;;;;0.00;0.00;;;;;;;15.72;73.32;99225.03;7359897;19;20542;-61
2023/10/25 09:29:52;;;;;;;0.10;0.10;;;;;;;15.98;72.57;99223.25;7359198;19;20017;-61
2023/10/25 09:32:21;;;;;;;0.10;0.10;;;;;;;16.33;73.05;99219.97;7358899;19;20002;-61
2023/10/25 09:34:47;;;;;;;0.03;0.03;;;;;;;16.50;71.48;99221.41;7357852;19;20404;-60
2023/10/25 09:37:13;;;;;;;0.10;0.10;;;;;;;16.71;71.37;99219.91;7359970;19;20463;-61
2023/10/25 09:39:39;;;;;;;0.05;0.05;;;;;;;16.95;71.01;99219.09;7356832;19;20015;-61
2023/10/25 09:42:07;;;;;;;0.10;0.10;;;;;;;17.18;70.53;99212.97;7349399;19;20035;-61
2023/10/25 09:44:45;;;;;;;0.10;0.10;;;;;;;17.51;71.48;99200.88;7361051;19;20014;-61
2023/10/25 09:47:11;;;;;;;0.10;0.10;;;;;;;17.67;69.64;99198.75;7359350;19;20865;-61
2023/10/25 09:49:42;;;;;;;0.10;0.10;;;;;;;17.97;69.82;99200.03;7358048;19;20477;-61
2023/10/25 09:52:25;;;;;;;0.10;0.10;;;;;;;18.17;69.14;99201.16;7356840;19;20486;-61
2023/10/25 09:54:51;;;;;;;0.00;0.00;;;;;;;18.18;68.45;99198.38;7355079;19;20010;-61
2023/10/25 09:57:18;;;;;;;0.10;0.10;;;;;;;18.22;68.48;99194.53;7353075;19;20028;-59
2023/10/25 09:59:44;;;;;;;0.17;0.17;;;;;;;18.29;69.00;99185.16;7357165;19;20013;-61
2023/10/25 10:02:33;;;;;;;0.10;0.10;;;;;;;18.48;69.00;99194.28;7356393;19;20596;-61
2023/10/25 10:05:09;;;;;;;0.10;0.10;;;;;;;18.67;69.95;99191.84;7350268;19;20009;-61
2023/10/25 10:08:05;;;;;;;0.10;0.10;;;;;;;18.79;69.85;99193.53;7357599;19;20046;-60
2023/10/25 10:10:45;;;;;;;0.08;0.08;;;;;;;18.81;69.73;99185.50;7356820;19;20017;-61
2023/10/25 10:13:18;;;;;;;0.10;0.10;;;;;;;18.81;69.09;99196.91;7350976;19;20507;-61
2023/10/25 10:16:15;;;;;;;0.10;0.10;;;;;;;18.91;70.49;99189.91;7355625;19;20027;-59
2023/10/25 10:18:49;;;;;;;0.10;0.10;;;;;;;18.85;69.57;99187.75;7356568;19;20014;-61
2023/10/25 10:21:15;;;;;;;0.10;0.10;;;;;;;18.85;68.76;99193.03;7355687;19;20025;-61
2023/10/25 10:23:51;;;;;;;0.10;0.10;;;;;;;18.85;69.34;99193.03;7360387;19;20775;-61
2023/10/25 10:26:41;;;;;;;0.10;0.10;;;;;;;18.88;70.43;99190.16;7361680;19;20052;-61
2023/10/25 10:29:33;;;;;;;0.10;0.10;;;;;;;18.80;70.95;99195.22;7359594;19;20010;-61
2023/10/25 10:32:00;;;;;;;0.10;0.10;;;;;;;18.60;70.50;99183.59;7352262;19;20065;-61
2023/10/25 10:34:44;;;;;;;0.10;0.10;;;;;;;18.58;71.82;99185.50;7356688;19;20017;-61
2023/10/25 10:37:17;;;;;;;0.00;0.00;;;;;;;18.42;71.54;99180.59;7362660;19;20040;-61
2023/10/25 10:39:57;;;;;;;0.10;0.10;;;;;;;18.32;72.33;99177.00;7361664;19;20014;-61
2023/10/25 10:42:34;;;;;;;0.10;0.10;;;;;;;18.19;73.18;99168.34;7365372;19;20040;-61
2023/10/25 10:45:09;;;;;;;0.10;0.10;;;;;;;18.07;73.39;99171.97;7367954;19;20014;-61
2023/10/25 10:47:56;;;;;;;0.10;0.10;;;;;;;17.96;73.36;99171.97;7366010;19;20081;-61
2023/10/25 10:50:24;;;;;;;0.10;0.10;;;;;;;17.86;73.75;99172.66;7359227;19;21078;-61
2023/10/25 10:52:51;;;;;;;0.10;0.10;;;;;;;17.78;74.17;99164.47;7358254;19;20070;-61
2023/10/25 10:55:25;;;;;;;0.10;0.10;;;;;;;17.77;75.05;99156.69;7358903;19;20014;-61
2023/10/25 10:57:52;;;;;;;0.10;0.10;;;;;;;17.65;74.57;99158.44;7358769;19;20018;-61
2023/10/25 11:00:18;;;;;;;0.10;0.10;;;;;;;17.61;75.30;99157.81;7363965;19;20077;-59
2023/10/25 11:02:48;;;;;;;0.10;0.10;;;;;;;17.67;75.57;99151.25;7354977;19;20531;-61
2023/10/25 11:05:15;;;;;;;0.10;0.10;;;;;;;17.76;75.21;99145.28;7366499;19;21071;-60
2023/10/25 11:07:41;;;;;;;0.10;0.10;;;;;;;17.91;75.03;99142.44;7365657;19;20883;-61
2023/10/25 11:10:07;;;;;;;0.10;0.10;;;;;;;18.10;75.36;99145.31;7361960;19;20025;-60
2023/10/25 11:12:33;;;;;;;0.10;0.10;;;;;;;18.28;74.88;99133.28;7371403;19;20983;-61
2023/10/25 11:15:05;;;;;;;0.10;0.10;;;;;;;18.71;75.42;99136.97;7367195;19;20078;-61
2023/10/25 11:17:31;;;;;;;0.10;0.10;;;;;;;18.87;73.54;99127.66;7363381;19;20037;-61
2023/10/25 11:19:56;;;;;;;0.10;0.10;;;;;;;19.29;72.52;99140.09;7364109;19;20006;-61
2023/10/25 11:22:22;;;;;;;0.10;0.10;;;;;;;19.62;72.03;99142.56;7365894;19;20014;-61
2023/10/25 11:24:49;;;;;;;0.10;0.10;;;;;;;20.02;71.37;99130.34;7357771;19;20058;-60
2023/10/25 11:27:14;;;;;;;0.13;0.13;;;;;;;20.36;70.40;99131.72;7358278;19;20026;-61
2023/10/25 11:29:40;;;;;;;0.10;0.10;;;;;;;20.70;70.10;99128.78;7358069;19;20034;-61
2023/10/25 11:32:11;;;;;;;0.10;0.10;;;;;;;20.90;69.65;99117.19;7369152;19;20002;-61
2023/10/25 11:34:39;;;;;;;0.08;0.08;;;;;;;21.18;69.52;99109.34;7369975;19;20015;-60